Time;durP1;ratioP1;P1;durP2;ratioP2;P2;SDS_P1;SDS_P2;PMS_P1;PMS_P2;Temp;Humidity;BMP_temperature;BMP_pressure;BME280_temperature;BME280_humidity;BME280_pressure;Samples;Min_cycle;Max_cycle;Signal;HPM_P1;HPM_P2
2022/04/08 00:01:27;;;;;;;3.58;1.30;;;19.90;53.20;;;;;;5031793;28;20464;-64
2022/04/08 00:03:53;;;;;;;3.90;1.38;;;19.90;53.20;;;;;;5032249;28;20445;-63
2022/04/08 00:06:20;;;;;;;3.15;1.00;;;20.00;53.20;;;;;;5031629;28;20056;-63
2022/04/08 00:08:46;;;;;;;3.92;1.30;;;19.90;53.20;;;;;;5032227;28;20044;-64
2022/04/08 00:11:12;;;;;;;3.72;1.20;;;19.90;53.20;;;;;;5034724;28;20049;-63
2022/04/08 00:13:37;;;;;;;1.98;0.70;;;19.90;53.20;;;;;;5035633;28;20850;-63
2022/04/08 00:16:03;;;;;;;2.70;1.00;;;19.90;53.20;;;;;;5036228;28;20049;-63
2022/04/08 00:18:29;;;;;;;2.45;0.80;;;19.90;53.20;;;;;;5036520;28;20515;-63
2022/04/08 00:20:56;;;;;;;6.45;1.17;;;19.90;53.20;;;;;;5035310;28;20500;-63
2022/04/08 00:23:21;;;;;;;3.95;1.38;;;19.90;53.20;;;;;;5036257;28;20049;-63
2022/04/08 00:25:46;;;;;;;3.47;1.00;;;19.90;53.20;;;;;;5035996;28;20046;-63
2022/04/08 00:28:12;;;;;;;3.40;0.90;;;19.80;53.20;;;;;;5035011;28;20092;-64
2022/04/08 00:30:38;;;;;;;3.00;1.00;;;19.80;53.20;;;;;;5035617;28;20095;-64
2022/04/08 00:33:03;;;;;;;3.55;0.85;;;19.80;53.80;;;;;;5035687;28;20041;-63
2022/04/08 00:35:29;;;;;;;2.83;0.88;;;19.80;53.20;;;;;;5035346;28;20041;-63
2022/04/08 00:37:54;;;;;;;3.05;0.80;;;19.80;53.20;;;;;;5035692;28;20046;-64
2022/04/08 00:40:20;;;;;;;2.17;0.73;;;19.80;53.20;;;;;;5035896;28;20088;-63
2022/04/08 00:42:45;;;;;;;3.42;0.98;;;19.80;53.20;;;;;;5034646;28;20132;-63
2022/04/08 00:45:11;;;;;;;2.10;0.70;;;19.80;53.20;;;;;;5035765;28;20045;-63
2022/04/08 00:47:40;;;;;;;2.63;0.70;;;19.80;53.20;;;;;;5035920;28;20052;-64
2022/04/08 00:50:06;;;;;;;3.03;0.80;;;19.80;53.20;;;;;;5034761;28;20041;-64
2022/04/08 00:52:32;;;;;;;2.35;0.80;;;19.80;53.20;;;;;;5050923;28;20133;-64
2022/04/08 00:54:58;;;;;;;3.17;0.80;;;19.80;53.30;;;;;;5034077;28;20051;-63
2022/04/08 00:57:23;;;;;;;3.15;0.90;;;19.70;53.30;;;;;;5049869;28;20049;-64
2022/04/08 00:59:49;;;;;;;3.00;0.90;;;19.70;53.20;;;;;;5035095;28;20041;-64
2022/04/08 01:02:15;;;;;;;2.05;0.73;;;19.70;53.20;;;;;;5035712;28;20080;-64
2022/04/08 01:04:40;;;;;;;3.05;0.82;;;19.70;53.20;;;;;;5034797;28;20538;-63
2022/04/08 01:07:06;;;;;;;3.85;1.10;;;19.70;53.80;;;;;;5035277;28;20049;-64
2022/04/08 01:09:32;;;;;;;2.90;0.98;;;19.70;53.20;;;;;;5034664;28;20037;-64
2022/04/08 01:11:57;;;;;;;1.55;0.60;;;19.70;53.20;;;;;;5034506;28;20041;-63
2022/04/08 01:14:23;;;;;;;2.97;0.70;;;19.70;53.20;;;;;;5035392;28;20041;-64
2022/04/08 01:16:48;;;;;;;4.38;0.80;;;19.70;53.20;;;;;;5034362;28;20045;-64
2022/04/08 01:19:14;;;;;;;3.00;0.70;;;19.70;53.20;;;;;;5035257;28;20037;-64
2022/04/08 01:21:39;;;;;;;2.80;0.70;;;19.70;53.20;;;;;;5033807;28;20103;-63
2022/04/08 01:24:06;;;;;;;2.50;0.70;;;19.70;53.10;;;;;;5033964;28;20500;-63
2022/04/08 01:26:32;;;;;;;2.97;0.90;;;19.70;53.20;;;;;;5033818;28;20045;-63
2022/04/08 01:28:58;;;;;;;1.88;0.60;;;19.70;53.10;;;;;;5034311;28;20459;-63
2022/04/08 01:31:24;;;;;;;4.63;1.13;;;19.70;53.10;;;;;;5034137;28;20057;-63
2022/04/08 01:33:52;;;;;;;3.88;0.75;;;19.70;53.10;;;;;;5034678;28;20041;-63
2022/04/08 01:36:18;;;;;;;;;;;19.70;53.00;;;;;;5035426;28;20038;-63
2022/04/08 01:38:43;;;;;;;2.20;0.75;;;19.70;53.00;;;;;;5033878;28;19928;-63
2022/04/08 01:41:09;;;;;;;3.78;0.57;;;19.70;53.00;;;;;;5034891;28;20107;-63
2022/04/08 01:43:34;;;;;;;3.22;0.75;;;19.70;53.00;;;;;;5034390;28;20037;-63
2022/04/08 01:46:00;;;;;;;3.65;0.63;;;19.70;52.90;;;;;;5033710;28;20045;-63
2022/04/08 01:48:25;;;;;;;2.97;0.60;;;19.70;52.90;;;;;;5034686;28;20124;-63
2022/04/08 01:50:51;;;;;;;1.83;0.52;;;19.70;52.90;;;;;;5033943;28;20103;-63
2022/04/08 01:53:17;;;;;;;2.63;0.73;;;19.70;52.90;;;;;;5033864;28;20045;-63
2022/04/08 01:55:43;;;;;;;2.42;0.60;;;19.70;52.80;;;;;;5034033;28;20492;-63
2022/04/08 01:58:10;;;;;;;1.52;0.60;;;19.70;52.80;;;;;;5034399;28;20037;-63
2022/04/08 02:00:36;;;;;;;2.33;0.52;;;19.70;52.70;;;;;;5033381;28;20049;-63
2022/04/08 02:03:02;;;;;;;2.25;0.70;;;19.70;52.70;;;;;;5033970;28;20041;-63
2022/04/08 02:05:27;;;;;;;2.28;0.60;;;19.80;52.80;;;;;;5034129;28;20037;-63
2022/04/08 02:07:54;;;;;;;1.83;0.60;;;19.80;52.70;;;;;;5033158;28;20552;-63
2022/04/08 02:10:19;;;;;;;1.80;0.65;;;19.80;52.70;;;;;;5033964;28;20057;-63
2022/04/08 02:12:45;;;;;;;2.05;0.73;;;19.80;52.60;;;;;;5032763;28;20048;-63
2022/04/08 02:15:11;;;;;;;2.60;0.65;;;19.80;52.60;;;;;;5034192;28;20045;-63
2022/04/08 02:17:36;;;;;;;1.35;0.60;;;19.90;52.70;;;;;;5034246;28;20041;-63
2022/04/08 02:20:04;;;;;;;1.23;0.40;;;19.80;52.60;;;;;;5033136;28;20057;-63
2022/04/08 02:22:30;;;;;;;2.60;0.50;;;19.80;52.60;;;;;;5033964;28;20037;-63
2022/04/08 02:24:56;;;;;;;2.75;0.50;;;19.80;52.60;;;;;;5033630;28;20121;-64
2022/04/08 02:27:23;;;;;;;2.67;0.60;;;19.90;52.70;;;;;;5031955;28;20029;-63
2022/04/08 02:29:51;;;;;;;2.08;0.63;;;19.90;52.60;;;;;;5033263;28;20065;-63
2022/04/08 02:32:17;;;;;;;3.00;0.60;;;19.90;52.60;;;;;;5016018;28;20446;-63
2022/04/08 02:34:42;;;;;;;2.95;0.70;;;19.90;52.60;;;;;;5032515;28;20049;-63
2022/04/08 02:37:08;;;;;;;1.45;0.40;;;19.90;52.60;;;;;;5033483;28;20049;-63
2022/04/08 02:39:33;;;;;;;2.22;0.90;;;19.90;52.60;;;;;;5033561;28;20512;-63
2022/04/08 02:41:59;;;;;;;1.70;0.63;;;19.90;52.60;;;;;;5032584;28;20042;-63
2022/04/08 02:44:24;;;;;;;1.77;0.70;;;19.90;52.50;;;;;;5033723;28;20038;-63
2022/04/08 02:46:50;;;;;;;2.25;0.60;;;19.90;52.50;;;;;;5033413;28;20049;-63
2022/04/08 02:49:15;;;;;;;1.83;0.50;;;19.90;52.60;;;;;;5031387;28;20037;-63
2022/04/08 02:51:41;;;;;;;2.10;0.40;;;19.90;52.50;;;;;;5033442;28;20129;-63
2022/04/08 02:54:06;;;;;;;1.85;0.40;;;19.90;52.50;;;;;;5033274;28;20500;-63
2022/04/08 02:56:32;;;;;;;2.95;0.60;;;20.00;52.60;;;;;;5032703;28;20049;-63
2022/04/08 02:59:00;;;;;;;1.17;0.40;;;20.00;52.60;;;;;;5033018;28;20071;-63
2022/04/08 03:01:26;;;;;;;2.53;0.65;;;19.90;52.50;;;;;;5033297;28;20076;-64
2022/04/08 03:03:52;;;;;;;1.92;0.47;;;19.90;52.50;;;;;;5032407;28;20071;-63
2022/04/08 03:06:17;;;;;;;2.60;0.43;;;20.00;52.50;;;;;;5033179;28;20471;-63
2022/04/08 03:08:42;;;;;;;3.13;0.80;;;20.00;52.50;;;;;;5032997;28;20048;-63
2022/04/08 03:11:08;;;;;;;3.78;0.65;;;20.00;52.50;;;;;;5032415;28;20042;-63
2022/04/08 03:13:35;;;;;;;2.65;0.50;;;20.00;53.30;;;;;;5033097;28;20056;-63
2022/04/08 03:16:01;;;;;;;2.15;0.70;;;20.00;52.50;;;;;;5032363;28;20057;-63
2022/04/08 03:18:27;;;;;;;1.95;0.50;;;20.00;52.50;;;;;;5032946;28;20041;-63
2022/04/08 03:20:52;;;;;;;1.33;0.38;;;20.00;52.50;;;;;;5032774;28;20099;-63
2022/04/08 03:23:18;;;;;;;2.22;0.50;;;20.00;52.50;;;;;;5032136;28;20084;-63
2022/04/08 03:25:43;;;;;;;1.70;0.47;;;20.00;52.50;;;;;;5032612;28;20052;-63
2022/04/08 03:28:09;;;;;;;1.45;0.47;;;20.00;52.50;;;;;;5033064;28;20103;-63
2022/04/08 03:30:35;;;;;;;1.70;0.47;;;20.00;52.50;;;;;;5031649;28;20049;-63
2022/04/08 03:33:00;;;;;;;1.52;0.40;;;20.10;52.50;;;;;;5032653;28;20068;-63
2022/04/08 03:35:26;;;;;;;1.90;0.57;;;20.10;52.50;;;;;;5032765;28;20107;-63
2022/04/08 03:37:51;;;;;;;1.42;0.50;;;20.10;52.50;;;;;;5032134;28;20049;-63
2022/04/08 03:40:17;;;;;;;1.17;0.35;;;20.10;52.50;;;;;;5032655;28;20045;-63
2022/04/08 03:42:42;;;;;;;2.95;0.73;;;20.10;52.60;;;;;;5032928;28;20041;-63
2022/04/08 03:45:08;;;;;;;1.27;0.40;;;20.10;52.50;;;;;;5031225;28;20046;-63
2022/04/08 03:47:33;;;;;;;0.60;0.30;;;20.10;52.50;;;;;;5032838;28;20037;-63
2022/04/08 03:49:59;;;;;;;1.05;0.40;;;20.10;52.50;;;;;;5032280;28;20501;-63
2022/04/08 03:52:29;;;;;;;1.52;0.50;;;20.10;52.50;;;;;;5031976;28;20576;-64
2022/04/08 03:54:55;;;;;;;1.60;0.50;;;20.10;52.50;;;;;;5032420;28;20045;-63
2022/04/08 03:57:20;;;;;;;0.93;0.30;;;20.10;52.50;;;;;;5032627;28;20056;-63
2022/04/08 03:59:47;;;;;;;1.02;0.25;;;20.10;52.50;;;;;;5031313;28;20037;-63
2022/04/08 04:02:13;;;;;;;1.45;0.40;;;20.10;52.50;;;;;;5032495;28;20107;-63
2022/04/08 04:04:38;;;;;;;1.52;0.40;;;20.10;52.40;;;;;;5031978;28;20045;-63
2022/04/08 04:07:04;;;;;;;1.17;0.40;;;20.10;52.40;;;;;;5031267;28;20104;-63
2022/04/08 04:09:29;;;;;;;2.03;0.50;;;20.10;52.40;;;;;;5032584;28;20115;-63
2022/04/08 04:11:55;;;;;;;2.40;0.40;;;20.10;52.40;;;;;;5032113;28;20093;-63
2022/04/08 04:14:20;;;;;;;1.73;0.55;;;20.10;52.40;;;;;;5031792;28;20034;-63
2022/04/08 04:16:46;;;;;;;1.35;0.50;;;20.10;52.40;;;;;;5032299;28;20053;-63
2022/04/08 04:19:11;;;;;;;1.15;0.30;;;20.10;52.40;;;;;;5030720;28;20573;-63
2022/04/08 04:21:37;;;;;;;1.15;0.40;;;20.10;52.30;;;;;;5031705;28;20037;-63
2022/04/08 04:24:03;;;;;;;1.98;0.40;;;20.10;52.40;;;;;;5032100;28;20432;-63
2022/04/08 04:26:28;;;;;;;0.70;0.40;;;20.10;52.40;;;;;;5031734;28;20133;-63
2022/04/08 04:28:54;;;;;;;1.05;0.30;;;20.10;52.40;;;;;;5031778;28;20054;-63
2022/04/08 04:31:19;;;;;;;1.70;0.40;;;20.10;52.30;;;;;;5032358;28;20085;-63
2022/04/08 04:33:45;;;;;;;1.80;0.47;;;20.20;52.40;;;;;;5030918;28;20050;-63
2022/04/08 04:36:13;;;;;;;2.38;0.40;;;20.20;52.40;;;;;;5031740;28;20497;-63
2022/04/08 04:38:39;;;;;;;0.90;0.30;;;20.20;52.40;;;;;;5031853;28;20064;-63
2022/04/08 04:41:04;;;;;;;1.77;0.43;;;20.20;52.40;;;;;;5031162;28;20381;-63
2022/04/08 04:43:30;;;;;;;0.65;0.30;;;20.20;52.40;;;;;;5031783;28;20120;-64
2022/04/08 04:45:55;;;;;;;1.15;0.47;;;20.20;52.40;;;;;;5032041;28;20045;-63
2022/04/08 04:48:22;;;;;;;1.40;0.30;;;20.20;52.40;;;;;;5031402;28;20054;-63
2022/04/08 04:50:48;;;;;;;1.38;0.40;;;20.20;52.30;;;;;;5031745;28;20042;-63
2022/04/08 04:53:13;;;;;;;1.35;0.40;;;20.20;52.30;;;;;;5031876;28;20137;-63
2022/04/08 04:55:39;;;;;;;0.95;0.35;;;20.20;52.30;;;;;;5031153;28;20042;-63
2022/04/08 04:58:04;;;;;;;1.23;0.28;;;20.20;52.30;;;;;;5035049;28;20038;-63
2022/04/08 05:00:30;;;;;;;1.60;0.50;;;20.20;52.30;;;;;;5035860;28;20048;-63
2022/04/08 05:02:55;;;;;;;1.02;0.30;;;20.20;52.30;;;;;;5034566;28;20048;-63
2022/04/08 05:05:21;;;;;;;1.08;0.50;;;20.20;52.30;;;;;;5035277;28;20048;-63
2022/04/08 05:07:46;;;;;;;1.75;0.30;;;20.20;52.30;;;;;;5035072;28;20049;-63
2022/04/08 05:10:12;;;;;;;1.95;0.30;;;20.20;52.30;;;;;;5034333;28;20511;-63
2022/04/08 05:12:37;;;;;;;2.15;0.30;;;20.20;52.30;;;;;;5035217;28;20038;-63
2022/04/08 05:15:07;;;;;;;1.40;0.35;;;20.20;52.30;;;;;;5034877;28;20052;-63
2022/04/08 05:17:35;;;;;;;1.20;0.30;;;20.20;52.30;;;;;;5034600;28;20064;-63
2022/04/08 05:20:05;;;;;;;0.68;0.30;;;20.20;52.30;;;;;;5035094;28;20049;-64
2022/04/08 05:22:31;;;;;;;1.35;0.30;;;20.20;52.30;;;;;;5035328;28;20038;-63
2022/04/08 05:24:58;;;;;;;1.45;0.40;;;20.20;52.30;;;;;;5033975;28;20050;-63
2022/04/08 05:27:23;;;;;;;2.38;0.40;;;20.20;52.30;;;;;;5035125;28;20038;-63
2022/04/08 05:29:49;;;;;;;1.25;0.30;;;20.20;52.30;;;;;;5033433;28;20061;-63
2022/04/08 05:32:14;;;;;;;3.60;0.50;;;20.20;52.30;;;;;;5035072;28;20545;-63
2022/04/08 05:34:40;;;;;;;1.85;0.43;;;20.20;52.30;;;;;;5034975;28;20041;-63
2022/04/08 05:37:07;;;;;;;0.85;0.20;;;20.20;52.30;;;;;;5033681;28;20053;-63
2022/04/08 05:39:32;;;;;;;2.03;0.35;;;20.20;52.30;;;;;;5035073;28;20128;-64
2022/04/08 05:41:58;;;;;;;2.47;0.40;;;20.20;52.30;;;;;;5033184;28;20113;-63
2022/04/08 05:44:23;;;;;;;2.58;0.40;;;20.20;52.30;;;;;;5033782;28;20077;-63
2022/04/08 05:46:49;;;;;;;1.52;0.30;;;20.20;52.30;;;;;;5034488;28;20489;-63
2022/04/08 05:49:14;;;;;;;1.33;0.40;;;20.20;52.30;;;;;;5034911;28;20056;-63
2022/04/08 05:51:40;;;;;;;1.30;0.40;;;20.20;52.30;;;;;;5033603;28;20046;-63
2022/04/08 05:54:05;;;;;;;1.65;0.40;;;20.30;52.30;;;;;;5034465;28;20042;-63
2022/04/08 05:56:31;;;;;;;1.75;0.45;;;20.30;52.30;;;;;;5034655;28;20048;-63
2022/04/08 05:58:57;;;;;;;1.17;0.30;;;20.20;52.20;;;;;;5033435;28;20124;-63
2022/04/08 06:01:23;;;;;;;1.77;0.40;;;20.20;52.20;;;;;;5034232;28;20053;-63
2022/04/08 06:03:48;;;;;;;1.65;0.57;;;20.30;52.30;;;;;;5034158;28;20168;-64
2022/04/08 06:06:14;;;;;;;1.45;0.32;;;20.30;52.30;;;;;;5033698;28;20117;-64
2022/04/08 06:08:39;;;;;;;1.65;0.40;;;20.30;52.20;;;;;;5033742;28;20084;-63
2022/04/08 06:11:05;;;;;;;2.20;0.30;;;20.30;52.20;;;;;;5033969;28;20049;-63
2022/04/08 06:13:30;;;;;;;1.05;0.30;;;20.30;52.20;;;;;;5033585;28;20049;-64
2022/04/08 06:15:56;;;;;;;1.52;0.40;;;20.30;52.20;;;;;;5033699;28;20456;-63
2022/04/08 06:18:22;;;;;;;2.20;0.32;;;20.30;52.20;;;;;;5034050;28;20125;-64
2022/04/08 06:20:47;;;;;;;0.93;0.30;;;20.30;52.20;;;;;;5031714;28;20083;-64
2022/04/08 06:23:13;;;;;;;1.00;0.22;;;20.30;52.20;;;;;;5034058;28;20488;-63
2022/04/08 06:25:38;;;;;;;1.95;0.32;;;20.30;52.20;;;;;;5034263;28;20064;-67
2022/04/08 06:28:05;;;;;;;3.72;0.30;;;20.30;52.20;;;;;;5026806;28;20393;-64
2022/04/08 06:30:31;;;;;;;4.20;0.30;;;20.30;52.20;;;;;;5027407;28;20089;-63
2022/04/08 06:32:57;;;;;;;2.30;0.30;;;20.30;52.20;;;;;;5032290;28;20056;-64
2022/04/08 06:35:22;;;;;;;0.75;0.28;;;20.40;52.00;;;;;;5033741;28;20050;-64
2022/04/08 06:37:48;;;;;;;1.30;0.30;;;20.40;51.80;;;;;;5033611;28;20041;-64
2022/04/08 06:40:14;;;;;;;2.22;0.60;;;20.40;51.60;;;;;;5033144;28;20052;-64
2022/04/08 06:42:39;;;;;;;2.10;0.50;;;20.40;51.60;;;;;;5033341;28;20064;-64
2022/04/08 06:45:06;;;;;;;1.02;0.32;;;20.40;51.50;;;;;;5033379;28;20034;-64
2022/04/08 06:47:31;;;;;;;3.92;0.40;;;20.40;51.60;;;;;;5032904;28;20041;-64
2022/04/08 06:49:57;;;;;;;5.25;0.38;;;20.40;51.50;;;;;;5033190;28;20041;-69
2022/04/08 06:52:23;;;;;;;2.17;0.57;;;20.40;51.60;;;;;;5033615;28;20053;-65
2022/04/08 06:54:48;;;;;;;2.95;0.40;;;20.40;51.60;;;;;;5032466;28;20063;-64
2022/04/08 06:57:14;;;;;;;4.78;0.50;;;20.40;51.60;;;;;;5033493;28;20049;-64
2022/04/08 06:59:40;;;;;;;3.08;0.40;;;20.40;51.70;;;;;;5033262;28;20033;-64
2022/04/08 07:02:05;;;;;;;1.40;0.40;;;20.40;51.80;;;;;;5031892;28;20090;-65
2022/04/08 07:04:31;;;;;;;5.75;0.40;;;20.50;52.00;;;;;;5033269;28;20053;-65
2022/04/08 07:06:56;;;;;;;2.92;0.50;;;20.50;52.10;;;;;;5033110;28;20052;-65
2022/04/08 07:09:22;;;;;;;3.35;0.40;;;20.50;52.30;;;;;;5032576;28;20044;-65
2022/04/08 07:11:48;;;;;;;1.42;0.30;;;20.50;52.30;;;;;;5032771;28;20493;-65
2022/04/08 07:14:14;;;;;;;1.65;0.40;;;20.50;52.30;;;;;;5032984;28;20128;-64
2022/04/08 07:16:41;;;;;;;2.53;0.40;;;20.60;52.30;;;;;;5032306;28;20060;-66
2022/04/08 07:19:07;;;;;;;4.45;0.38;;;20.50;52.20;;;;;;5032564;28;20512;-67
2022/04/08 07:21:32;;;;;;;6.35;0.57;;;20.50;52.20;;;;;;5028030;28;20123;-63
2022/04/08 07:23:58;;;;;;;3.78;0.50;;;20.60;52.40;;;;;;5021839;28;20500;-64
2022/04/08 07:26:23;;;;;;;5.88;0.50;;;20.60;52.40;;;;;;5023106;28;20048;-64
2022/04/08 07:28:49;;;;;;;1.70;0.43;;;20.60;52.40;;;;;;5013583;28;20061;-65
2022/04/08 07:31:14;;;;;;;1.65;0.40;;;20.60;52.40;;;;;;5012408;28;20058;-64
2022/04/08 07:33:40;;;;;;;1.38;0.40;;;20.60;52.50;;;;;;5012979;28;20386;-64
2022/04/08 07:36:06;;;;;;;1.55;0.50;;;20.60;52.50;;;;;;5012692;28;20508;-63
2022/04/08 07:38:31;;;;;;;1.02;0.40;;;20.60;52.60;;;;;;5012196;28;20045;-63
2022/04/08 07:41:00;;;;;;;2.83;0.50;;;20.60;52.60;;;;;;5012523;28;20045;-64
2022/04/08 07:43:26;;;;;;;0.95;0.30;;;20.70;52.60;;;;;;5011754;28;20137;-64
2022/04/08 07:45:51;;;;;;;0.80;0.40;;;20.70;52.60;;;;;;5016608;28;20485;-65
2022/04/08 07:48:17;;;;;;;1.13;0.30;;;20.70;52.50;;;;;;5029779;28;20045;-65
2022/04/08 07:50:43;;;;;;;0.70;0.30;;;20.80;52.60;;;;;;5031397;28;20053;-64
2022/04/08 07:53:08;;;;;;;2.97;0.40;;;20.80;52.50;;;;;;5032702;28;20045;-65
2022/04/08 07:55:34;;;;;;;2.65;0.40;;;20.80;52.50;;;;;;5032231;28;20445;-65
2022/04/08 07:57:59;;;;;;;1.58;0.40;;;20.80;52.50;;;;;;5029735;28;20041;-63
2022/04/08 08:00:26;;;;;;;3.20;0.60;;;20.80;52.50;;;;;;5032638;28;20132;-63
2022/04/08 08:02:51;;;;;;;3.00;0.50;;;20.90;52.60;;;;;;5026137;28;20034;-63
2022/04/08 08:05:17;;;;;;;2.75;0.38;;;20.90;52.80;;;;;;5023217;28;20447;-63
2022/04/08 08:07:53;;;;;;;4.43;0.50;;;20.90;52.80;;;;;;5032150;28;20045;-63
2022/04/08 08:10:21;;;;;;;2.00;0.30;;;20.90;53.30;;;;;;5032502;28;20041;-63
2022/04/08 08:12:46;;;;;;;1.10;0.40;;;20.90;52.90;;;;;;5031188;28;20480;-63
2022/04/08 08:15:12;;;;;;;1.50;0.70;;;21.00;53.00;;;;;;5032238;28;20107;-64
2022/04/08 08:17:39;;;;;;;2.38;0.50;;;21.00;53.10;;;;;;5032282;28;20081;-63
2022/04/08 08:20:05;;;;;;;1.55;0.30;;;21.00;53.10;;;;;;5031124;28;20057;-63
2022/04/08 08:22:31;;;;;;;2.28;0.50;;;21.00;53.20;;;;;;5032279;28;20041;-65
2022/04/08 08:24:56;;;;;;;1.05;0.50;;;21.00;53.20;;;;;;5031663;28;20041;-64
2022/04/08 08:27:22;;;;;;;1.60;0.50;;;21.00;53.20;;;;;;5026239;28;20136;-65
2022/04/08 08:29:47;;;;;;;2.50;0.50;;;21.00;53.30;;;;;;5027885;28;20045;-65
2022/04/08 08:32:13;;;;;;;3.60;0.70;;;21.00;53.30;;;;;;5034487;28;20085;-64
2022/04/08 08:34:39;;;;;;;3.30;0.52;;;21.00;53.20;;;;;;5035999;28;20047;-63
2022/04/08 08:37:04;;;;;;;1.92;0.65;;;21.00;53.20;;;;;;5035591;28;20051;-63
2022/04/08 08:39:30;;;;;;;1.85;0.63;;;21.00;53.20;;;;;;5035866;28;20121;-62
2022/04/08 08:41:56;;;;;;;1.75;0.65;;;21.10;53.30;;;;;;5034496;28;20124;-63
2022/04/08 08:44:21;;;;;;;2.47;0.60;;;21.00;53.30;;;;;;5035525;28;20394;-62
2022/04/08 08:46:48;;;;;;;3.58;0.68;;;21.10;53.30;;;;;;5034854;28;20050;-62
2022/04/08 08:49:14;;;;;;;4.18;1.17;;;21.10;53.30;;;;;;5035582;28;20136;-63
2022/04/08 08:51:41;;;;;;;1.35;0.70;;;21.10;53.40;;;;;;5035455;28;20045;-63
2022/04/08 08:54:07;;;;;;;3.80;0.65;;;21.20;53.50;;;;;;5034556;28;20069;-63
2022/04/08 08:56:32;;;;;;;3.05;0.63;;;21.20;53.50;;;;;;5035605;28;20507;-62
2022/04/08 08:58:58;;;;;;;3.05;0.60;;;21.20;53.50;;;;;;5035203;28;20065;-63
2022/04/08 09:01:23;;;;;;;2.58;0.73;;;21.20;53.60;;;;;;5034856;28;20132;-63
2022/04/08 09:03:49;;;;;;;2.65;0.77;;;21.20;53.60;;;;;;5035268;28;20046;-63
2022/04/08 09:06:16;;;;;;;3.58;0.70;;;21.30;53.60;;;;;;5035352;28;20049;-63
2022/04/08 09:08:42;;;;;;;2.40;0.70;;;21.30;53.60;;;;;;5034703;28;20038;-63
2022/04/08 09:11:07;;;;;;;1.20;0.70;;;21.30;53.50;;;;;;5035210;28;20139;-64
2022/04/08 09:13:44;;;;;;;2.55;0.88;;;21.30;53.30;;;;;;5035212;28;20465;-64
2022/04/08 09:16:10;;;;;;;2.00;0.70;;;21.30;53.30;;;;;;5034467;28;20045;-64
2022/04/08 09:18:37;;;;;;;2.00;0.80;;;21.30;53.30;;;;;;5034124;28;20044;-64
2022/04/08 09:21:03;;;;;;;3.73;0.90;;;21.30;53.30;;;;;;5030959;28;20049;-63
2022/04/08 09:23:29;;;;;;;2.28;0.60;;;21.30;53.30;;;;;;5019093;28;20037;-63
2022/04/08 09:26:04;;;;;;;1.20;0.60;;;21.30;53.30;;;;;;5022465;28;20183;-63
2022/04/08 09:28:34;;;;;;;1.83;0.65;;;21.30;53.30;;;;;;5024784;28;20052;-63
2022/04/08 09:31:01;;;;;;;0.90;0.50;;;21.30;53.30;;;;;;5025822;28;20053;-63
2022/04/08 09:33:27;;;;;;;3.22;0.80;;;21.30;53.20;;;;;;5033505;28;20049;-63
2022/04/08 09:35:53;;;;;;;2.45;0.85;;;21.30;53.20;;;;;;5033218;28;20625;-63
2022/04/08 09:38:20;;;;;;;2.97;0.80;;;21.30;53.10;;;;;;5034144;28;20500;-64
2022/04/08 09:40:47;;;;;;;3.42;0.90;;;21.30;53.10;;;;;;5028053;28;20045;-64
2022/04/08 09:43:13;;;;;;;2.10;0.80;;;21.40;53.00;;;;;;5032899;28;20594;-63
2022/04/08 09:45:39;;;;;;;3.83;0.98;;;21.30;53.00;;;;;;5021072;28;20042;-64
2022/04/08 09:48:07;;;;;;;2.65;0.88;;;21.40;53.20;;;;;;5014596;28;20049;-63
2022/04/08 09:50:34;;;;;;;2.22;0.70;;;21.30;53.30;;;;;;5013548;28;20089;-64
2022/04/08 09:52:59;;;;;;;3.30;0.80;;;21.40;53.30;;;;;;5014562;28;20124;-64
2022/04/08 09:55:25;;;;;;;1.88;0.52;;;21.40;53.50;;;;;;5014625;28;20527;-63
2022/04/08 09:57:56;;;;;;;1.60;0.80;;;21.30;53.40;;;;;;5012445;28;20049;-63
2022/04/08 10:00:21;;;;;;;2.75;0.77;;;21.40;53.60;;;;;;5015009;28;20042;-63
2022/04/08 10:02:48;;;;;;;4.05;0.93;;;21.30;53.50;;;;;;5014226;28;20046;-63
2022/04/08 10:05:14;;;;;;;2.33;0.82;;;21.40;53.50;;;;;;5013672;28;20061;-63
2022/04/08 10:07:39;;;;;;;2.67;0.80;;;21.40;54.20;;;;;;5016996;28;20489;-63
2022/04/08 10:10:17;;;;;;;1.70;0.70;;;21.40;53.50;;;;;;5028824;28;20029;-63
2022/04/08 10:13:07;;;;;;;3.15;0.80;;;21.40;53.60;;;;;;5031228;28;20053;-64
2022/04/08 10:15:42;;;;;;;6.18;0.88;;;21.40;53.60;;;;;;5032628;28;20065;-63
2022/04/08 10:18:07;;;;;;;2.15;0.77;;;21.30;53.50;;;;;;5028900;28;20400;-63
2022/04/08 10:20:33;;;;;;;1.75;0.70;;;21.30;53.50;;;;;;5032770;28;20542;-63
2022/04/08 10:23:09;;;;;;;2.95;0.82;;;21.30;53.50;;;;;;5032648;28;20050;-62
2022/04/08 10:25:36;;;;;;;2.10;0.70;;;21.30;53.50;;;;;;5031019;28;20116;-62
2022/04/08 10:28:02;;;;;;;2.50;0.70;;;21.30;53.50;;;;;;5031433;28;20037;-62
2022/04/08 10:30:27;;;;;;;3.33;0.70;;;21.30;53.50;;;;;;5026277;28;20318;-62
2022/04/08 10:32:59;;;;;;;4.25;0.80;;;21.30;53.50;;;;;;5022766;28;20041;-63
2022/04/08 10:35:25;;;;;;;4.68;0.68;;;21.30;53.40;;;;;;5022331;28;20080;-63
2022/04/08 10:38:03;;;;;;;2.08;0.70;;;21.30;53.50;;;;;;5023978;28;20119;-63
2022/04/08 10:40:29;;;;;;;2.35;0.70;;;21.30;53.50;;;;;;5021573;28;20113;-62
2022/04/08 10:42:56;;;;;;;2.67;0.65;;;21.30;53.50;;;;;;5022942;28;20458;-62
2022/04/08 10:45:22;;;;;;;2.92;0.77;;;21.30;53.50;;;;;;5022218;28;20085;-64
2022/04/08 10:47:48;;;;;;;3.20;0.70;;;21.20;53.40;;;;;;5012734;28;20139;-64
2022/04/08 10:50:23;;;;;;;1.95;0.52;;;21.20;53.20;;;;;;5013556;28;20041;-64
2022/04/08 10:52:49;;;;;;;2.25;0.70;;;21.20;53.20;;;;;;5012919;28;20060;-64
2022/04/08 10:55:14;;;;;;;3.72;0.80;;;21.20;53.20;;;;;;5012265;28;20042;-63
2022/04/08 10:57:42;;;;;;;1.77;0.60;;;21.20;53.20;;;;;;5013675;28;20057;-64
2022/04/08 11:00:13;;;;;;;1.60;0.65;;;21.20;53.20;;;;;;5013710;28;20038;-64
2022/04/08 11:02:43;;;;;;;1.88;0.73;;;21.20;53.30;;;;;;5013396;28;20046;-64
2022/04/08 11:05:09;;;;;;;3.13;1.17;;;21.20;53.20;;;;;;5013315;28;20387;-64
2022/04/08 11:07:39;;;;;;;3.03;0.80;;;21.20;53.30;;;;;;5012868;28;20042;-64
2022/04/08 11:10:05;;;;;;;8.13;1.13;;;21.20;53.20;;;;;;5011795;28;20481;-66
2022/04/08 11:12:31;;;;;;;3.28;0.98;;;21.10;53.00;;;;;;5014335;28;20089;-64
2022/04/08 11:15:02;;;;;;;3.45;1.10;;;21.10;52.90;;;;;;5015570;28;20045;-63
2022/04/08 11:17:34;;;;;;;6.68;1.88;;;21.10;52.90;;;;;;5022351;28;20037;-64
2022/04/08 11:20:01;;;;;;;8.68;2.42;;;21.10;52.80;;;;;;5021344;28;20037;-63
2022/04/08 11:22:32;;;;;;;7.78;2.17;;;21.00;52.70;;;;;;5022545;28;20077;-65
2022/04/08 11:24:59;;;;;;;6.85;1.95;;;21.00;52.70;;;;;;5018995;28;20482;-63
2022/04/08 11:27:25;;;;;;;7.90;2.65;;;21.00;52.90;;;;;;5024438;28;20049;-72
2022/04/08 11:29:50;;;;;;;7.20;2.05;;;21.00;52.90;;;;;;5031597;28;20440;-66
2022/04/08 11:32:16;;;;;;;5.30;1.90;;;20.90;52.90;;;;;;5032468;28;20038;-64
2022/04/08 11:34:42;;;;;;;5.40;1.88;;;20.90;52.90;;;;;;5032516;28;20042;-64
2022/04/08 11:37:08;;;;;;;5.53;2.15;;;20.90;52.90;;;;;;5031349;28;20056;-65
2022/04/08 11:39:33;;;;;;;5.82;1.67;;;20.90;53.60;;;;;;5048038;28;20111;-65
2022/04/08 11:42:03;;;;;;;8.15;2.20;;;20.90;52.90;;;;;;5032611;28;20052;-65
2022/04/08 11:44:29;;;;;;;5.97;1.90;;;20.90;52.80;;;;;;5030703;28;20048;-64
2022/04/08 11:47:04;;;;;;;5.03;1.67;;;20.80;52.70;;;;;;5031164;28;20049;-66
2022/04/08 11:49:30;;;;;;;5.45;2.05;;;20.90;52.80;;;;;;5031891;28;20033;-64
2022/04/08 11:52:06;;;;;;;6.00;1.77;;;20.80;52.80;;;;;;5027045;28;20359;-65
2022/04/08 11:54:38;;;;;;;5.43;2.08;;;20.80;52.70;;;;;;5012707;28;20056;-65
2022/04/08 11:57:07;;;;;;;5.55;2.15;;;20.80;52.80;;;;;;5011561;28;20096;-67
2022/04/08 11:59:33;;;;;;;4.45;1.60;;;20.80;52.80;;;;;;5012439;28;20394;-63
2022/04/08 12:01:59;;;;;;;4.32;1.70;;;20.80;52.70;;;;;;5013443;28;20033;-66
2022/04/08 12:04:25;;;;;;;4.85;1.65;;;20.80;52.60;;;;;;5020320;28;20549;-63
2022/04/08 12:06:50;;;;;;;5.45;1.52;;;20.80;52.60;;;;;;5020988;28;20065;-63
2022/04/08 12:09:17;;;;;;;4.05;1.83;;;20.80;52.50;;;;;;5016981;28;20042;-63
2022/04/08 12:11:44;;;;;;;5.55;1.85;;;20.80;52.40;;;;;;5015613;28;20038;-63
2022/04/08 12:14:10;;;;;;;6.63;1.92;;;20.80;53.00;;;;;;5016412;28;20042;-63
2022/04/08 12:16:39;;;;;;;3.58;1.60;;;20.90;52.30;;;;;;5018993;28;20041;-62
2022/04/08 12:19:05;;;;;;;4.75;1.90;;;20.90;52.20;;;;;;5023017;28;20544;-65
2022/04/08 12:21:31;;;;;;;6.53;1.77;;;20.90;52.20;;;;;;5032239;28;20077;-63
2022/04/08 12:24:01;;;;;;;5.57;1.73;;;20.90;52.20;;;;;;5032098;28;20092;-64
2022/04/08 12:26:31;;;;;;;4.80;1.70;;;20.90;52.20;;;;;;5024466;28;20386;-64
2022/04/08 12:29:10;;;;;;;4.75;1.73;;;20.90;52.10;;;;;;5035538;28;20050;-65
2022/04/08 12:31:49;;;;;;;5.65;1.58;;;21.00;52.20;;;;;;5036336;28;20099;-63
2022/04/08 12:34:15;;;;;;;6.13;1.83;;;21.00;52.20;;;;;;5036239;28;20046;-65
2022/04/08 12:36:44;;;;;;;4.65;1.50;;;21.00;52.20;;;;;;5036214;28;20037;-66
2022/04/08 12:39:11;;;;;;;5.30;1.85;;;21.00;52.00;;;;;;5027973;28;20117;-65
2022/04/08 12:41:46;;;;;;;4.40;1.50;;;21.10;52.00;;;;;;5016245;28;20093;-65
2022/04/08 12:44:12;;;;;;;8.10;1.77;;;21.10;51.90;;;;;;5015923;28;20041;-64